sensor_id;sensor_type;location;lat;lon;timestamp;pressure;altitude;pressure_sealevel;temperature;humidity
32033;BME280;31720;52.638;9.216;2024-03-22T00:00:12;101772.16;;;10.72;100.00
32033;BME280;31720;52.638;9.216;2024-03-22T00:03:12;101765.34;;;10.68;100.00
32033;BME280;31720;52.638;9.216;2024-03-22T00:06:15;101760.97;;;10.66;100.00
32033;BME280;31720;52.638;9.216;2024-03-22T00:09:16;101761.78;;;10.69;100.00
32033;BME280;31720;52.638;9.216;2024-03-22T00:12:17;101756.38;;;10.72;100.00
32033;BME280;31720;52.638;9.216;2024-03-22T00:15:18;101751.94;;;10.74;100.00
32033;BME280;31720;52.638;9.216;2024-03-22T00:18:19;101744.75;;;10.79;100.00
32033;BME280;31720;52.638;9.216;2024-03-22T00:21:21;101735.00;;;10.59;100.00
32033;BME280;31720;52.638;9.216;2024-03-22T00:24:22;101728.47;;;10.46;100.00
32033;BME280;31720;52.638;9.216;2024-03-22T00:27:23;101713.47;;;10.49;100.00
32033;BME280;31720;52.638;9.216;2024-03-22T00:30:24;101711.97;;;10.42;100.00
32033;BME280;31720;52.638;9.216;2024-03-22T00:33:24;101710.47;;;10.35;100.00
32033;BME280;31720;52.638;9.216;2024-03-22T00:36:27;101708.84;;;10.31;100.00
32033;BME280;31720;52.638;9.216;2024-03-22T00:39:27;101725.69;;;10.50;100.00
32033;BME280;31720;52.638;9.216;2024-03-22T00:42:29;101722.97;;;10.28;100.00
32033;BME280;31720;52.638;9.216;2024-03-22T00:45:29;101724.63;;;10.31;100.00
32033;BME280;31720;52.638;9.216;2024-03-22T00:48:30;101727.03;;;10.37;100.00
32033;BME280;31720;52.638;9.216;2024-03-22T00:51:32;101708.25;;;10.48;100.00
32033;BME280;31720;52.638;9.216;2024-03-22T00:54:33;101708.19;;;10.49;100.00
32033;BME280;31720;52.638;9.216;2024-03-22T00:57:35;101703.22;;;10.65;100.00
32033;BME280;31720;52.638;9.216;2024-03-22T01:00:35;101701.34;;;10.67;100.00
32033;BME280;31720;52.638;9.216;2024-03-22T01:03:38;101689.22;;;10.64;100.00
32033;BME280;31720;52.638;9.216;2024-03-22T01:06:39;101694.34;;;10.68;100.00
32033;BME280;31720;52.638;9.216;2024-03-22T01:09:41;101693.63;;;10.64;100.00
32033;BME280;31720;52.638;9.216;2024-03-22T01:12:44;101689.28;;;10.63;100.00
32033;BME280;31720;52.638;9.216;2024-03-22T01:15:45;101675.97;;;10.68;100.00
32033;BME280;31720;52.638;9.216;2024-03-22T01:18:46;101676.06;;;10.64;100.00
32033;BME280;31720;52.638;9.216;2024-03-22T01:21:48;101674.19;;;10.68;100.00
32033;BME280;31720;52.638;9.216;2024-03-22T01:24:50;101663.78;;;10.65;100.00
32033;BME280;31720;52.638;9.216;2024-03-22T01:27:50;101655.53;;;10.74;100.00
32033;BME280;31720;52.638;9.216;2024-03-22T01:30:52;101647.75;;;10.71;100.00
32033;BME280;31720;52.638;9.216;2024-03-22T01:33:52;101647.94;;;10.66;100.00
32033;BME280;31720;52.638;9.216;2024-03-22T01:36:55;101642.50;;;10.71;100.00
32033;BME280;31720;52.638;9.216;2024-03-22T01:39:55;101641.41;;;10.55;100.00
32033;BME280;31720;52.638;9.216;2024-03-22T01:42:57;101639.88;;;10.49;100.00
32033;BME280;31720;52.638;9.216;2024-03-22T01:45:58;101633.50;;;10.55;100.00
32033;BME280;31720;52.638;9.216;2024-03-22T01:48:59;101631.66;;;10.57;100.00
32033;BME280;31720;52.638;9.216;2024-03-22T01:52:02;101630.81;;;10.56;100.00
32033;BME280;31720;52.638;9.216;2024-03-22T01:55:03;101617.50;;;10.61;100.00
32033;BME280;31720;52.638;9.216;2024-03-22T01:58:06;101608.94;;;10.56;100.00
32033;BME280;31720;52.638;9.216;2024-03-22T02:01:08;101604.41;;;10.59;100.00
32033;BME280;31720;52.638;9.216;2024-03-22T02:04:10;101601.72;;;10.61;100.00
32033;BME280;31720;52.638;9.216;2024-03-22T02:07:12;101599.28;;;10.56;100.00
32033;BME280;31720;52.638;9.216;2024-03-22T02:10:14;101591.50;;;10.53;100.00
32033;BME280;31720;52.638;9.216;2024-03-22T02:13:14;101577.47;;;10.54;100.00
32033;BME280;31720;52.638;9.216;2024-03-22T02:16:16;101575.38;;;10.62;100.00
32033;BME280;31720;52.638;9.216;2024-03-22T02:19:17;101565.72;;;10.63;100.00
32033;BME280;31720;52.638;9.216;2024-03-22T02:22:19;101556.28;;;10.57;100.00
32033;BME280;31720;52.638;9.216;2024-03-22T02:25:22;101533.88;;;10.49;100.00
32033;BME280;31720;52.638;9.216;2024-03-22T02:28:22;101538.34;;;10.47;100.00
32033;BME280;31720;52.638;9.216;2024-03-22T02:31:24;101542.09;;;10.41;100.00
32033;BME280;31720;52.638;9.216;2024-03-22T02:34:25;101547.38;;;10.39;100.00
32033;BME280;31720;52.638;9.216;2024-03-22T02:37:27;101551.34;;;10.28;100.00
32033;BME280;31720;52.638;9.216;2024-03-22T02:40:29;101543.84;;;10.40;100.00
32033;BME280;31720;52.638;9.216;2024-03-22T02:43:31;101542.00;;;10.43;100.00
32033;BME280;31720;52.638;9.216;2024-03-22T02:46:31;101538.81;;;10.34;100.00
32033;BME280;31720;52.638;9.216;2024-03-22T02:49:32;101539.50;;;10.39;100.00
32033;BME280;31720;52.638;9.216;2024-03-22T02:52:33;101532.72;;;10.34;100.00
32033;BME280;31720;52.638;9.216;2024-03-22T02:55:39;101522.88;;;10.39;100.00
32033;BME280;31720;52.638;9.216;2024-03-22T02:58:39;101514.03;;;10.41;100.00
32033;BME280;31720;52.638;9.216;2024-03-22T03:01:41;101509.81;;;10.37;100.00
32033;BME280;31720;52.638;9.216;2024-03-22T03:04:41;101502.78;;;10.38;100.00
32033;BME280;31720;52.638;9.216;2024-03-22T03:07:42;101502.00;;;10.36;100.00
32033;BME280;31720;52.638;9.216;2024-03-22T03:10:44;101505.28;;;10.41;100.00
32033;BME280;31720;52.638;9.216;2024-03-22T03:13:45;101495.81;;;10.37;100.00
32033;BME280;31720;52.638;9.216;2024-03-22T03:16:46;101487.88;;;10.38;100.00
32033;BME280;31720;52.638;9.216;2024-03-22T03:19:48;101480.59;;;10.45;100.00
32033;BME280;31720;52.638;9.216;2024-03-22T03:22:48;101472.66;;;10.47;100.00
32033;BME280;31720;52.638;9.216;2024-03-22T03:25:51;101461.34;;;10.45;100.00
32033;BME280;31720;52.638;9.216;2024-03-22T03:28:51;101461.34;;;10.45;100.00
32033;BME280;31720;52.638;9.216;2024-03-22T03:31:54;101464.97;;;10.42;100.00
32033;BME280;31720;52.638;9.216;2024-03-22T03:34:55;101471.19;;;10.39;100.00
32033;BME280;31720;52.638;9.216;2024-03-22T03:37:56;101470.94;;;10.46;100.00
32033;BME280;31720;52.638;9.216;2024-03-22T03:40:58;101462.13;;;10.47;100.00
32033;BME280;31720;52.638;9.216;2024-03-22T03:43:59;101467.66;;;10.40;100.00
32033;BME280;31720;52.638;9.216;2024-03-22T03:47:00;101448.88;;;10.50;100.00
32033;BME280;31720;52.638;9.216;2024-03-22T03:50:01;101451.16;;;10.57;100.00
32033;BME280;31720;52.638;9.216;2024-03-22T03:53:02;101444.00;;;10.61;100.00
32033;BME280;31720;52.638;9.216;2024-03-22T03:56:05;101444.09;;;10.59;100.00
32033;BME280;31720;52.638;9.216;2024-03-22T03:59:05;101436.59;;;10.50;100.00
32033;BME280;31720;52.638;9.216;2024-03-22T04:02:07;101441.13;;;10.47;100.00
32033;BME280;31720;52.638;9.216;2024-03-22T04:05:07;101427.97;;;10.47;100.00
32033;BME280;31720;52.638;9.216;2024-03-22T04:08:09;101415.56;;;10.50;100.00
32033;BME280;31720;52.638;9.216;2024-03-22T04:11:11;101413.00;;;10.49;100.00
32033;BME280;31720;52.638;9.216;2024-03-22T04:14:12;101411.94;;;10.53;100.00
32033;BME280;31720;52.638;9.216;2024-03-22T04:17:12;101404.13;;;10.51;100.00
32033;BME280;31720;52.638;9.216;2024-03-22T04:20:14;101412.00;;;10.51;100.00
32033;BME280;31720;52.638;9.216;2024-03-22T04:23:14;101403.16;;;10.54;100.00
32033;BME280;31720;52.638;9.216;2024-03-22T04:26:17;101400.53;;;10.54;100.00
32033;BME280;31720;52.638;9.216;2024-03-22T04:29:18;101399.41;;;10.59;100.00
32033;BME280;31720;52.638;9.216;2024-03-22T04:32:19;101395.94;;;10.59;100.00
32033;BME280;31720;52.638;9.216;2024-03-22T04:35:20;101388.09;;;10.57;100.00
32033;BME280;31720;52.638;9.216;2024-03-22T04:38:21;101377.38;;;10.62;100.00
32033;BME280;31720;52.638;9.216;2024-03-22T04:41:24;101385.13;;;10.65;100.00
32033;BME280;31720;52.638;9.216;2024-03-22T04:44:26;101379.97;;;10.63;100.00
32033;BME280;31720;52.638;9.216;2024-03-22T04:47:27;101381.66;;;10.64;100.00
32033;BME280;31720;52.638;9.216;2024-03-22T04:50:27;101362.41;;;10.64;100.00
32033;BME280;31720;52.638;9.216;2024-03-22T04:53:29;101364.84;;;10.69;100.00
32033;BME280;31720;52.638;9.216;2024-03-22T04:56:31;101358.78;;;10.66;100.00
32033;BME280;31720;52.638;9.216;2024-03-22T04:59:32;101369.09;;;10.71;100.00
32033;BME280;31720;52.638;9.216;2024-03-22T05:02:32;101370.75;;;10.74;100.00
32033;BME280;31720;52.638;9.216;2024-03-22T05:05:34;101354.13;;;10.73;100.00
32033;BME280;31720;52.638;9.216;2024-03-22T05:08:35;101358.31;;;10.77;100.00
32033;BME280;31720;52.638;9.216;2024-03-22T05:11:37;101349.72;;;10.74;100.00
32033;BME280;31720;52.638;9.216;2024-03-22T05:14:38;101353.13;;;10.76;100.00
32033;BME280;31720;52.638;9.216;2024-03-22T05:17:39;101336.66;;;10.72;100.00
32033;BME280;31720;52.638;9.216;2024-03-22T05:20:41;101346.03;;;10.78;100.00
32033;BME280;31720;52.638;9.216;2024-03-22T05:23:42;101337.28;;;10.77;100.00
32033;BME280;31720;52.638;9.216;2024-03-22T05:26:44;101327.63;;;10.78;100.00
32033;BME280;31720;52.638;9.216;2024-03-22T05:29:46;101330.25;;;10.78;100.00
32033;BME280;31720;52.638;9.216;2024-03-22T05:32:46;101329.03;;;10.85;100.00
32033;BME280;31720;52.638;9.216;2024-03-22T05:35:49;101326.06;;;10.92;100.00
32033;BME280;31720;52.638;9.216;2024-03-22T05:38:49;101334.88;;;10.91;100.00
32033;BME280;31720;52.638;9.216;2024-03-22T05:41:52;101320.94;;;10.89;100.00
32033;BME280;31720;52.638;9.216;2024-03-22T05:44:52;101311.28;;;10.90;100.00
32033;BME280;31720;52.638;9.216;2024-03-22T05:47:55;101310.28;;;10.92;100.00
32033;BME280;31720;52.638;9.216;2024-03-22T05:50:55;101302.31;;;10.94;100.00
32033;BME280;31720;52.638;9.216;2024-03-22T05:53:57;101299.69;;;10.94;100.00
32033;BME280;31720;52.638;9.216;2024-03-22T05:56:59;101302.84;;;11.02;100.00
32033;BME280;31720;52.638;9.216;2024-03-22T06:00:00;101316.06;;;11.01;100.00
32033;BME280;31720;52.638;9.216;2024-03-22T06:03:02;101314.19;;;11.03;100.00
32033;BME280;31720;52.638;9.216;2024-03-22T06:06:04;101315.94;;;11.04;100.00
32033;BME280;31720;52.638;9.216;2024-03-22T06:09:05;101316.50;;;11.10;100.00
32033;BME280;31720;52.638;9.216;2024-03-22T06:12:11;101317.13;;;11.15;100.00
32033;BME280;31720;52.638;9.216;2024-03-22T06:15:12;101313.66;;;11.15;100.00
32033;BME280;31720;52.638;9.216;2024-03-22T06:18:12;101320.78;;;11.13;100.00
32033;BME280;31720;52.638;9.216;2024-03-22T06:21:14;101321.63;;;11.13;100.00
32033;BME280;31720;52.638;9.216;2024-03-22T06:24:14;101318.69;;;11.20;100.00
32033;BME280;31720;52.638;9.216;2024-03-22T06:27:17;101314.91;;;11.25;100.00
32033;BME280;31720;52.638;9.216;2024-03-22T06:30:17;101311.78;;;11.36;100.00
32033;BME280;31720;52.638;9.216;2024-03-22T06:33:19;101296.63;;;11.41;100.00
32033;BME280;31720;52.638;9.216;2024-03-22T06:36:19;101286.09;;;11.41;100.00
32033;BME280;31720;52.638;9.216;2024-03-22T06:39:22;101276.16;;;11.29;100.00
32033;BME280;31720;52.638;9.216;2024-03-22T06:42:25;101276.78;;;11.34;100.00
32033;BME280;31720;52.638;9.216;2024-03-22T06:45:26;101269.19;;;11.28;100.00
32033;BME280;31720;52.638;9.216;2024-03-22T06:48:28;101267.41;;;11.28;100.00
32033;BME280;31720;52.638;9.216;2024-03-22T06:51:28;101254.66;;;11.38;100.00
32033;BME280;31720;52.638;9.216;2024-03-22T06:54:29;101253.59;;;11.42;100.00
32033;BME280;31720;52.638;9.216;2024-03-22T06:57:32;101247.34;;;11.45;100.00
32033;BME280;31720;52.638;9.216;2024-03-22T07:00:34;101252.59;;;11.45;100.00
32033;BME280;31720;52.638;9.216;2024-03-22T07:03:35;101256.09;;;11.45;100.00
32033;BME280;31720;52.638;9.216;2024-03-22T07:06:35;101253.06;;;11.53;100.00
32033;BME280;31720;52.638;9.216;2024-03-22T07:09:37;101250.81;;;11.45;100.00
32033;BME280;31720;52.638;9.216;2024-03-22T07:12:38;101258.31;;;11.53;100.00
32033;BME280;31720;52.638;9.216;2024-03-22T07:15:40;101241.41;;;11.58;100.00
32033;BME280;31720;52.638;9.216;2024-03-22T07:18:40;101265.22;;;11.55;100.00
32033;BME280;31720;52.638;9.216;2024-03-22T07:21:42;101258.19;;;11.56;100.00
32033;BME280;31720;52.638;9.216;2024-03-22T07:24:42;101249.13;;;11.61;100.00
32033;BME280;31720;52.638;9.216;2024-03-22T07:27:45;101255.63;;;11.72;100.00
32033;BME280;31720;52.638;9.216;2024-03-22T07:30:46;101261.13;;;11.67;100.00
32033;BME280;31720;52.638;9.216;2024-03-22T07:33:47;101256.97;;;11.63;100.00
32033;BME280;31720;52.638;9.216;2024-03-22T07:36:49;101255.84;;;11.67;100.00
32033;BME280;31720;52.638;9.216;2024-03-22T07:39:49;101265.72;;;11.63;100.00
32033;BME280;31720;52.638;9.216;2024-03-22T07:42:52;101251.94;;;11.58;100.00
32033;BME280;31720;52.638;9.216;2024-03-22T07:45:53;101229.09;;;11.59;100.00
32033;BME280;31720;52.638;9.216;2024-03-22T07:48:55;101242.84;;;11.47;100.00
32033;BME280;31720;52.638;9.216;2024-03-22T07:51:55;101236.94;;;11.41;100.00
32033;BME280;31720;52.638;9.216;2024-03-22T07:54:57;101247.94;;;11.32;100.00
32033;BME280;31720;52.638;9.216;2024-03-22T07:57:59;101242.09;;;11.26;100.00
32033;BME280;31720;52.638;9.216;2024-03-22T08:01:00;101239.69;;;11.21;100.00
32033;BME280;31720;52.638;9.216;2024-03-22T08:04:01;101227.56;;;11.18;100.00
32033;BME280;31720;52.638;9.216;2024-03-22T08:07:01;101209.34;;;11.14;100.00
32033;BME280;31720;52.638;9.216;2024-03-22T08:10:03;101223.78;;;11.05;100.00
32033;BME280;31720;52.638;9.216;2024-03-22T08:13:05;101225.41;;;11.08;100.00
32033;BME280;31720;52.638;9.216;2024-03-22T08:16:07;101227.28;;;11.06;100.00
32033;BME280;31720;52.638;9.216;2024-03-22T08:19:07;101229.69;;;11.10;100.00
32033;BME280;31720;52.638;9.216;2024-03-22T08:22:09;101221.94;;;11.07;100.00
32033;BME280;31720;52.638;9.216;2024-03-22T08:25:10;101223.09;;;11.02;100.00
32033;BME280;31720;52.638;9.216;2024-03-22T08:28:12;101209.63;;;11.08;100.00
32033;BME280;31720;52.638;9.216;2024-03-22T08:31:14;101208.56;;;11.12;100.00
32033;BME280;31720;52.638;9.216;2024-03-22T08:34:15;101219.03;;;11.13;100.00
32033;BME280;31720;52.638;9.216;2024-03-22T08:37:16;101211.28;;;11.10;100.00
32033;BME280;31720;52.638;9.216;2024-03-22T08:40:18;101208.41;;;11.15;100.00
32033;BME280;31720;52.638;9.216;2024-03-22T08:43:20;101201.06;;;11.22;100.00
32033;BME280;31720;52.638;9.216;2024-03-22T08:46:23;101192.28;;;11.23;100.00
32033;BME280;31720;52.638;9.216;2024-03-22T08:49:25;101192.41;;;11.20;100.00
32033;BME280;31720;52.638;9.216;2024-03-22T08:52:26;101188.84;;;11.21;100.00
32033;BME280;31720;52.638;9.216;2024-03-22T08:55:26;101184.59;;;11.18;100.00
32033;BME280;31720;52.638;9.216;2024-03-22T08:58:29;101195.81;;;11.22;100.00
32033;BME280;31720;52.638;9.216;2024-03-22T09:01:30;101193.03;;;11.25;100.00
32033;BME280;31720;52.638;9.216;2024-03-22T09:04:31;101196.53;;;11.25;100.00
32033;BME280;31720;52.638;9.216;2024-03-22T09:07:32;101188.63;;;11.25;100.00
32033;BME280;31720;52.638;9.216;2024-03-22T09:10:33;101182.50;;;11.25;100.00
32033;BME280;31720;52.638;9.216;2024-03-22T09:13:35;101191.75;;;11.33;100.00
32033;BME280;31720;52.638;9.216;2024-03-22T09:16:36;101186.56;;;11.32;100.00
32033;BME280;31720;52.638;9.216;2024-03-22T09:19:37;101188.25;;;11.33;100.00
32033;BME280;31720;52.638;9.216;2024-03-22T09:22:38;101185.72;;;11.31;100.00
32033;BME280;31720;52.638;9.216;2024-03-22T09:25:39;101181.97;;;11.35;100.00
32033;BME280;31720;52.638;9.216;2024-03-22T09:28:42;101175.00;;;11.34;100.00
32033;BME280;31720;52.638;9.216;2024-03-22T09:31:43;101174.97;;;11.36;100.00
32033;BME280;31720;52.638;9.216;2024-03-22T09:34:44;101177.34;;;11.40;100.00
32033;BME280;31720;52.638;9.216;2024-03-22T09:37:45;101161.25;;;11.47;100.00
32033;BME280;31720;52.638;9.216;2024-03-22T09:40:47;101162.47;;;11.57;100.00
32033;BME280;31720;52.638;9.216;2024-03-22T09:43:48;101159.00;;;11.56;100.00
32033;BME280;31720;52.638;9.216;2024-03-22T09:46:51;101157.78;;;11.63;100.00
32033;BME280;31720;52.638;9.216;2024-03-22T09:49:52;101157.06;;;11.77;100.00
32033;BME280;31720;52.638;9.216;2024-03-22T09:52:55;101154.56;;;11.74;100.00
32033;BME280;31720;52.638;9.216;2024-03-22T09:55:59;101149.41;;;11.90;100.00
32033;BME280;31720;52.638;9.216;2024-03-22T09:59:03;101139.53;;;11.93;100.00
32033;BME280;31720;52.638;9.216;2024-03-22T10:02:03;101150.09;;;11.93;100.00
32033;BME280;31720;52.638;9.216;2024-03-22T10:05:05;101156.97;;;11.96;100.00
32033;BME280;31720;52.638;9.216;2024-03-22T10:08:06;101139.75;;;12.06;100.00
32033;BME280;31720;52.638;9.216;2024-03-22T10:11:08;101133.84;;;12.18;100.00
32033;BME280;31720;52.638;9.216;2024-03-22T10:14:10;101128.41;;;12.37;100.00
32033;BME280;31720;52.638;9.216;2024-03-22T10:17:11;101125.53;;;12.42;100.00
32033;BME280;31720;52.638;9.216;2024-03-22T10:20:12;101127.06;;;12.46;100.00
32033;BME280;31720;52.638;9.216;2024-03-22T10:23:14;101135.38;;;12.70;100.00
32033;BME280;31720;52.638;9.216;2024-03-22T10:26:15;101124.22;;;12.81;100.00
32033;BME280;31720;52.638;9.216;2024-03-22T10:29:19;101134.78;;;12.81;100.00
32033;BME280;31720;52.638;9.216;2024-03-22T10:32:20;101131.13;;;12.83;100.00
32033;BME280;31720;52.638;9.216;2024-03-22T10:35:24;101127.22;;;12.75;100.00
32033;BME280;31720;52.638;9.216;2024-03-22T10:38:25;101131.81;;;12.71;100.00
32033;BME280;31720;52.638;9.216;2024-03-22T10:41:27;101131.16;;;12.67;100.00
32033;BME280;31720;52.638;9.216;2024-03-22T10:44:29;101127.31;;;12.57;100.00
32033;BME280;31720;52.638;9.216;2024-03-22T10:47:33;101122.38;;;12.51;100.00
32033;BME280;31720;52.638;9.216;2024-03-22T10:50:34;101119.41;;;12.57;100.00
32033;BME280;31720;52.638;9.216;2024-03-22T10:53:36;101133.78;;;12.52;100.00
32033;BME280;31720;52.638;9.216;2024-03-22T10:56:39;101131.97;;;12.52;100.00
32033;BME280;31720;52.638;9.216;2024-03-22T10:59:43;101133.78;;;12.36;100.00
32033;BME280;31720;52.638;9.216;2024-03-22T11:02:44;101125.03;;;12.51;100.00
32033;BME280;31720;52.638;9.216;2024-03-22T11:05:46;101104.34;;;12.43;100.00
32033;BME280;31720;52.638;9.216;2024-03-22T11:08:50;101116.59;;;12.29;100.00
32033;BME280;31720;52.638;9.216;2024-03-22T11:11:53;101121.69;;;12.32;100.00
32033;BME280;31720;52.638;9.216;2024-03-22T11:14:55;101114.38;;;12.37;100.00
32033;BME280;31720;52.638;9.216;2024-03-22T11:17:57;101115.25;;;12.37;100.00
32033;BME280;31720;52.638;9.216;2024-03-22T11:20:57;101107.75;;;12.30;100.00
32033;BME280;31720;52.638;9.216;2024-03-22T11:24:00;101115.41;;;12.34;100.00
32033;BME280;31720;52.638;9.216;2024-03-22T11:27:00;101112.75;;;12.18;100.00
32033;BME280;31720;52.638;9.216;2024-03-22T11:30:04;101107.25;;;12.23;100.00
32033;BME280;31720;52.638;9.216;2024-03-22T11:33:05;101104.59;;;12.23;100.00
32033;BME280;31720;52.638;9.216;2024-03-22T11:36:07;101102.47;;;12.14;100.00
32033;BME280;31720;52.638;9.216;2024-03-22T11:39:08;101112.41;;;12.09;100.00
32033;BME280;31720;52.638;9.216;2024-03-22T11:42:09;101105.50;;;12.06;100.00
32033;BME280;31720;52.638;9.216;2024-03-22T11:45:14;101096.00;;;12.04;100.00
32033;BME280;31720;52.638;9.216;2024-03-22T11:48:16;101100.41;;;12.03;100.00
32033;BME280;31720;52.638;9.216;2024-03-22T11:51:16;101097.41;;;11.93;100.00
32033;BME280;31720;52.638;9.216;2024-03-22T11:54:19;101115.34;;;11.87;100.00
32033;BME280;31720;52.638;9.216;2024-03-22T11:57:20;101090.00;;;11.84;100.00
32033;BME280;31720;52.638;9.216;2024-03-22T12:00:22;101097.75;;;11.87;100.00
32033;BME280;31720;52.638;9.216;2024-03-22T12:03:25;101097.13;;;11.82;100.00
32033;BME280;31720;52.638;9.216;2024-03-22T12:06:26;101099.13;;;11.77;100.00
32033;BME280;31720;52.638;9.216;2024-03-22T12:09:27;101103.28;;;11.99;100.00
32033;BME280;31720;52.638;9.216;2024-03-22T12:12:29;101086.34;;;11.87;100.00
32033;BME280;31720;52.638;9.216;2024-03-22T12:15:31;101094.88;;;11.92;100.00
32033;BME280;31720;52.638;9.216;2024-03-22T12:18:32;101100.22;;;11.90;100.00
32033;BME280;31720;52.638;9.216;2024-03-22T12:21:34;101090.88;;;12.01;100.00
32033;BME280;31720;52.638;9.216;2024-03-22T12:24:36;101091.97;;;11.97;100.00
32033;BME280;31720;52.638;9.216;2024-03-22T12:27:36;101088.59;;;11.95;100.00
32033;BME280;31720;52.638;9.216;2024-03-22T12:30:39;101075.00;;;12.02;100.00
32033;BME280;31720;52.638;9.216;2024-03-22T12:33:39;101080.59;;;12.12;100.00
32033;BME280;31720;52.638;9.216;2024-03-22T12:36:41;101080.78;;;12.09;100.00
32033;BME280;31720;52.638;9.216;2024-03-22T12:39:41;101082.44;;;11.94;100.00
32033;BME280;31720;52.638;9.216;2024-03-22T12:42:43;101076.94;;;11.99;100.00
32033;BME280;31720;52.638;9.216;2024-03-22T12:45:46;101070.50;;;12.04;100.00
32033;BME280;31720;52.638;9.216;2024-03-22T12:48:47;101071.84;;;11.96;100.00
32033;BME280;31720;52.638;9.216;2024-03-22T12:51:49;101074.72;;;11.91;100.00
32033;BME280;31720;52.638;9.216;2024-03-22T12:54:49;101066.50;;;11.80;100.00
32033;BME280;31720;52.638;9.216;2024-03-22T12:57:50;101068.69;;;11.89;100.00
32033;BME280;31720;52.638;9.216;2024-03-22T13:00:52;101063.59;;;12.02;100.00
32033;BME280;31720;52.638;9.216;2024-03-22T13:03:54;101056.31;;;11.74;100.00
32033;BME280;31720;52.638;9.216;2024-03-22T13:06:55;101059.78;;;11.74;100.00
32033;BME280;31720;52.638;9.216;2024-03-22T13:09:56;101052.84;;;11.73;100.00
32033;BME280;31720;52.638;9.216;2024-03-22T13:12:56;101049.34;;;11.73;100.00
32033;BME280;31720;52.638;9.216;2024-03-22T13:15:59;101052.91;;;11.72;100.00
32033;BME280;31720;52.638;9.216;2024-03-22T13:19:02;101047.31;;;11.78;100.00
32033;BME280;31720;52.638;9.216;2024-03-22T13:22:04;101045.69;;;11.75;100.00
32033;BME280;31720;52.638;9.216;2024-03-22T13:25:05;101055.88;;;11.65;100.00
32033;BME280;31720;52.638;9.216;2024-03-22T13:28:09;101039.72;;;11.56;100.00
32033;BME280;31720;52.638;9.216;2024-03-22T13:31:11;101036.25;;;11.38;100.00
32033;BME280;31720;52.638;9.216;2024-03-22T13:34:12;101036.03;;;11.25;100.00
32033;BME280;31720;52.638;9.216;2024-03-22T13:37:13;101032.78;;;11.20;100.00
32033;BME280;31720;52.638;9.216;2024-03-22T13:40:14;101031.09;;;11.19;100.00
32033;BME280;31720;52.638;9.216;2024-03-22T13:43:15;101027.53;;;11.20;100.00
32033;BME280;31720;52.638;9.216;2024-03-22T13:46:17;101032.88;;;11.18;100.00
32033;BME280;31720;52.638;9.216;2024-03-22T13:49:19;101027.16;;;11.10;100.00
32033;BME280;31720;52.638;9.216;2024-03-22T13:52:20;101031.25;;;11.16;100.00
32033;BME280;31720;52.638;9.216;2024-03-22T13:55:21;101020.72;;;11.16;100.00
32033;BME280;31720;52.638;9.216;2024-03-22T13:58:22;101018.03;;;11.17;100.00
32033;BME280;31720;52.638;9.216;2024-03-22T14:01:24;101020.81;;;11.14;100.00
32033;BME280;31720;52.638;9.216;2024-03-22T14:04:26;101014.13;;;11.25;100.00
32033;BME280;31720;52.638;9.216;2024-03-22T14:07:26;101016.69;;;11.26;100.00
32033;BME280;31720;52.638;9.216;2024-03-22T14:10:28;101002.91;;;11.21;100.00
32033;BME280;31720;52.638;9.216;2024-03-22T14:13:31;100997.59;;;11.23;100.00
32033;BME280;31720;52.638;9.216;2024-03-22T14:16:33;100994.25;;;11.36;100.00
32033;BME280;31720;52.638;9.216;2024-03-22T14:19:34;100987.19;;;11.37;100.00
32033;BME280;31720;52.638;9.216;2024-03-22T14:22:35;100989.22;;;11.32;100.00
32033;BME280;31720;52.638;9.216;2024-03-22T14:25:36;100987.19;;;11.37;100.00
32033;BME280;31720;52.638;9.216;2024-03-22T14:28:37;100993.16;;;11.40;100.00
32033;BME280;31720;52.638;9.216;2024-03-22T14:31:41;100987.50;;;11.31;100.00
32033;BME280;31720;52.638;9.216;2024-03-22T14:34:42;100984.13;;;11.29;100.00
32033;BME280;31720;52.638;9.216;2024-03-22T14:37:43;100983.19;;;11.30;100.00
32033;BME280;31720;52.638;9.216;2024-03-22T14:40:44;100982.66;;;11.23;100.00
32033;BME280;31720;52.638;9.216;2024-03-22T14:43:45;100967.25;;;11.15;100.00
32033;BME280;31720;52.638;9.216;2024-03-22T14:46:47;100972.63;;;11.14;100.00
32033;BME280;31720;52.638;9.216;2024-03-22T14:49:49;100976.84;;;11.16;100.00
32033;BME280;31720;52.638;9.216;2024-03-22T14:52:49;100975.53;;;11.25;100.00
32033;BME280;31720;52.638;9.216;2024-03-22T14:55:53;100981.81;;;11.23;100.00
32033;BME280;31720;52.638;9.216;2024-03-22T14:58:58;100971.28;;;11.23;100.00
32033;BME280;31720;52.638;9.216;2024-03-22T15:02:01;100961.16;;;11.15;100.00
32033;BME280;31720;52.638;9.216;2024-03-22T15:05:03;100950.19;;;11.07;100.00
32033;BME280;31720;52.638;9.216;2024-03-22T15:08:05;100960.47;;;11.11;100.00
32033;BME280;31720;52.638;9.216;2024-03-22T15:11:06;100948.09;;;11.13;100.00
32033;BME280;31720;52.638;9.216;2024-03-22T15:14:07;100956.13;;;11.10;100.00
32033;BME280;31720;52.638;9.216;2024-03-22T15:17:10;100948.25;;;11.10;100.00
32033;BME280;31720;52.638;9.216;2024-03-22T15:20:12;100950.19;;;11.07;100.00
32033;BME280;31720;52.638;9.216;2024-03-22T15:23:13;100946.00;;;11.03;100.00
32033;BME280;31720;52.638;9.216;2024-03-22T15:26:13;100939.66;;;11.07;100.00
32033;BME280;31720;52.638;9.216;2024-03-22T15:29:15;100943.13;;;11.07;100.00
32033;BME280;31720;52.638;9.216;2024-03-22T15:32:16;100934.41;;;11.07;100.00
32033;BME280;31720;52.638;9.216;2024-03-22T15:35:20;100928.16;;;11.09;100.00